sensor_id;sensor_type;location;lat;lon;timestamp;pressure;altitude;pressure_sealevel;temperature;humidity
67740;BME280;54536;50.090;14.420;2023-02-13T00:00:20;101566.78;;;10.31;60.43
67740;BME280;54536;50.090;14.420;2023-02-13T00:03:07;101572.22;;;10.44;60.05
67740;BME280;54536;50.090;14.420;2023-02-13T00:05:33;101568.03;;;10.40;60.59
67740;BME280;54536;50.090;14.420;2023-02-13T00:07:59;101571.19;;;10.30;60.30
67740;BME280;54536;50.090;14.420;2023-02-13T00:10:25;101577.56;;;10.25;60.90
67740;BME280;54536;50.090;14.420;2023-02-13T00:12:52;101567.00;;;10.26;60.79
67740;BME280;54536;50.090;14.420;2023-02-13T00:15:18;101571.53;;;10.23;60.88
67740;BME280;54536;50.090;14.420;2023-02-13T00:17:45;101570.94;;;10.35;60.08
67740;BME280;54536;50.090;14.420;2023-02-13T00:20:11;101574.44;;;10.51;60.22
67740;BME280;54536;50.090;14.420;2023-02-13T00:22:38;101568.31;;;10.35;59.68
67740;BME280;54536;50.090;14.420;2023-02-13T00:25:06;101569.22;;;10.17;59.69
67740;BME280;54536;50.090;14.420;2023-02-13T00:27:33;101558.78;;;10.32;59.64
67740;BME280;54536;50.090;14.420;2023-02-13T00:29:59;101566.28;;;10.40;59.42
67740;BME280;54536;50.090;14.420;2023-02-13T00:32:26;101574.88;;;10.26;58.93
67740;BME280;54536;50.090;14.420;2023-02-13T00:34:52;101573.31;;;10.22;59.09
67740;BME280;54536;50.090;14.420;2023-02-13T00:37:18;101571.03;;;10.34;58.63
67740;BME280;54536;50.090;14.420;2023-02-13T00:39:44;101569.47;;;10.29;58.66
67740;BME280;54536;50.090;14.420;2023-02-13T00:42:11;101562.75;;;10.24;58.93
67740;BME280;54536;50.090;14.420;2023-02-13T00:44:40;101572.09;;;10.12;58.97
67740;BME280;54536;50.090;14.420;2023-02-13T00:47:06;101574.25;;;10.21;59.09
67740;BME280;54536;50.090;14.420;2023-02-13T00:49:32;101572.41;;;10.06;58.90
67740;BME280;54536;50.090;14.420;2023-02-13T00:52:01;101580.63;;;10.17;58.26
67740;BME280;54536;50.090;14.420;2023-02-13T00:54:27;101570.31;;;10.13;58.68
67740;BME280;54536;50.090;14.420;2023-02-13T00:56:53;101563.59;;;10.07;58.11
67740;BME280;54536;50.090;14.420;2023-02-13T00:59:19;101570.19;;;9.98;59.10
67740;BME280;54536;50.090;14.420;2023-02-13T01:01:46;101569.66;;;9.74;59.22
67740;BME280;54536;50.090;14.420;2023-02-13T01:04:13;101564.31;;;9.76;59.73
67740;BME280;54536;50.090;14.420;2023-02-13T01:06:39;101568.34;;;9.83;59.28
67740;BME280;54536;50.090;14.420;2023-02-13T01:09:08;101567.34;;;9.85;59.69
67740;BME280;54536;50.090;14.420;2023-02-13T01:11:34;101570.97;;;9.83;59.79
67740;BME280;54536;50.090;14.420;2023-02-13T01:14:00;101573.03;;;9.94;59.11
67740;BME280;54536;50.090;14.420;2023-02-13T01:16:27;101579.16;;;9.77;59.34
67740;BME280;54536;50.090;14.420;2023-02-13T01:18:53;101563.69;;;9.71;59.56
67740;BME280;54536;50.090;14.420;2023-02-13T01:21:21;101566.41;;;9.69;60.02
67740;BME280;54536;50.090;14.420;2023-02-13T01:23:49;101564.72;;;9.85;59.61
67740;BME280;54536;50.090;14.420;2023-02-13T01:26:22;101564.56;;;9.71;60.09
67740;BME280;54536;50.090;14.420;2023-02-13T01:28:54;101554.59;;;9.78;59.59
67740;BME280;54536;50.090;14.420;2023-02-13T01:31:23;101557.66;;;9.86;59.24
67740;BME280;54536;50.090;14.420;2023-02-13T01:33:50;101552.97;;;9.75;59.75
67740;BME280;54536;50.090;14.420;2023-02-13T01:36:17;101545.09;;;9.75;60.04
67740;BME280;54536;50.090;14.420;2023-02-13T01:38:43;101550.97;;;9.63;60.29
67740;BME280;54536;50.090;14.420;2023-02-13T01:41:10;101555.84;;;9.88;59.25
67740;BME280;54536;50.090;14.420;2023-02-13T01:43:53;101555.66;;;9.74;59.48
67740;BME280;54536;50.090;14.420;2023-02-13T01:46:35;101550.63;;;9.87;58.95
67740;BME280;54536;50.090;14.420;2023-02-13T01:49:12;101560.84;;;9.75;59.11
67740;BME280;54536;50.090;14.420;2023-02-13T01:51:42;101556.16;;;9.65;59.43
67740;BME280;54536;50.090;14.420;2023-02-13T01:54:21;101556.91;;;9.49;60.30
67740;BME280;54536;50.090;14.420;2023-02-13T01:56:59;101552.59;;;9.48;60.57
67740;BME280;54536;50.090;14.420;2023-02-13T01:59:55;101554.03;;;9.36;60.75
67740;BME280;54536;50.090;14.420;2023-02-13T02:02:23;101551.56;;;9.51;60.08
67740;BME280;54536;50.090;14.420;2023-02-13T02:04:50;101554.03;;;9.36;60.69
67740;BME280;54536;50.090;14.420;2023-02-13T02:07:23;101551.00;;;9.44;60.33
67740;BME280;54536;50.090;14.420;2023-02-13T02:09:55;101551.88;;;9.45;60.67
67740;BME280;54536;50.090;14.420;2023-02-13T02:12:37;101550.25;;;9.42;60.84
67740;BME280;54536;50.090;14.420;2023-02-13T02:15:07;101551.25;;;9.40;60.30
67740;BME280;54536;50.090;14.420;2023-02-13T02:17:34;101547.38;;;9.29;60.74
67740;BME280;54536;50.090;14.420;2023-02-13T02:29:16;101541.06;;;9.51;60.17
67740;BME280;54536;50.090;14.420;2023-02-13T02:32:28;101543.78;;;9.49;60.10
67740;BME280;54536;50.090;14.420;2023-02-13T02:41:06;101531.59;;;9.48;60.88
67740;BME280;54536;50.090;14.420;2023-02-13T02:46:17;101531.47;;;9.67;59.58
67740;BME280;54536;50.090;14.420;2023-02-13T02:54:24;101523.31;;;9.56;60.38
67740;BME280;54536;50.090;14.420;2023-02-13T02:57:20;101523.75;;;9.47;59.90
67740;BME280;54536;50.090;14.420;2023-02-13T02:59:48;101522.75;;;9.49;60.13
67740;BME280;54536;50.090;14.420;2023-02-13T03:02:34;101517.81;;;9.43;60.21
67740;BME280;54536;50.090;14.420;2023-02-13T03:05:28;101517.66;;;9.46;59.98
67740;BME280;54536;50.090;14.420;2023-02-13T03:08:16;101520.59;;;9.40;60.66
67740;BME280;54536;50.090;14.420;2023-02-13T03:11:02;101510.94;;;9.41;60.30
67740;BME280;54536;50.090;14.420;2023-02-13T03:13:49;101507.59;;;9.54;60.10
67740;BME280;54536;50.090;14.420;2023-02-13T03:16:19;101515.63;;;9.34;60.52
67740;BME280;54536;50.090;14.420;2023-02-13T03:19:17;101516.91;;;9.61;59.89
67740;BME280;54536;50.090;14.420;2023-02-13T03:22:20;101511.72;;;9.60;59.71
67740;BME280;54536;50.090;14.420;2023-02-13T03:38:23;101524.06;;;9.58;59.84
67740;BME280;54536;50.090;14.420;2023-02-13T03:41:04;101518.06;;;9.38;59.77
67740;BME280;54536;50.090;14.420;2023-02-13T03:46:52;101516.44;;;9.53;59.20
67740;BME280;54536;50.090;14.420;2023-02-13T03:49:28;101519.66;;;9.41;59.50
67740;BME280;54536;50.090;14.420;2023-02-13T03:52:35;101523.91;;;9.26;60.21
67740;BME280;54536;50.090;14.420;2023-02-13T03:55:17;101520.72;;;9.20;60.33
67740;BME280;54536;50.090;14.420;2023-02-13T03:58:10;101523.28;;;9.21;59.59
67740;BME280;54536;50.090;14.420;2023-02-13T04:00:59;101516.72;;;9.47;59.48
67740;BME280;54536;50.090;14.420;2023-02-13T04:03:32;101522.81;;;9.30;60.02
67740;BME280;54536;50.090;14.420;2023-02-13T04:06:07;101521.56;;;9.20;60.15
67740;BME280;54536;50.090;14.420;2023-02-13T04:08:34;101525.44;;;9.30;59.87
67740;BME280;54536;50.090;14.420;2023-02-13T04:11:32;101526.44;;;9.28;60.05
67740;BME280;54536;50.090;14.420;2023-02-13T04:14:30;101530.56;;;9.33;59.36
67740;BME280;54536;50.090;14.420;2023-02-13T04:17:06;101517.13;;;9.40;60.02
67740;BME280;54536;50.090;14.420;2023-02-13T04:19:34;101527.28;;;9.28;59.88
67740;BME280;54536;50.090;14.420;2023-02-13T04:22:02;101528.84;;;9.32;59.59
67740;BME280;54536;50.090;14.420;2023-02-13T04:24:29;101525.75;;;9.24;60.06
67740;BME280;54536;50.090;14.420;2023-02-13T04:26:55;101517.50;;;9.32;59.56
67740;BME280;54536;50.090;14.420;2023-02-13T04:29:24;101523.81;;;9.28;59.70
67740;BME280;54536;50.090;14.420;2023-02-13T04:31:52;101518.50;;;9.29;59.46
67740;BME280;54536;50.090;14.420;2023-02-13T04:34:19;101512.03;;;9.36;59.62
67740;BME280;54536;50.090;14.420;2023-02-13T04:36:46;101507.84;;;9.50;59.29
67740;BME280;54536;50.090;14.420;2023-02-13T04:39:24;101519.50;;;9.27;59.16
67740;BME280;54536;50.090;14.420;2023-02-13T04:41:50;101509.41;;;9.36;59.65
67740;BME280;54536;50.090;14.420;2023-02-13T04:44:17;101520.91;;;9.34;59.27
67740;BME280;54536;50.090;14.420;2023-02-13T04:46:42;101523.06;;;9.26;59.04
67740;BME280;54536;50.090;14.420;2023-02-13T04:49:10;101518.56;;;9.28;59.81
67740;BME280;54536;50.090;14.420;2023-02-13T04:51:36;101514.31;;;9.25;59.25
67740;BME280;54536;50.090;14.420;2023-02-13T04:54:02;101517.63;;;9.11;59.73
67740;BME280;54536;50.090;14.420;2023-02-13T04:56:28;101513.94;;;9.16;59.78
67740;BME280;54536;50.090;14.420;2023-02-13T04:58:55;101518.41;;;9.31;59.86
67740;BME280;54536;50.090;14.420;2023-02-13T05:01:21;101514.50;;;9.22;60.18
67740;BME280;54536;50.090;14.420;2023-02-13T05:03:48;101520.50;;;9.24;59.53
67740;BME280;54536;50.090;14.420;2023-02-13T05:06:15;101514.78;;;9.16;59.95
67740;BME280;54536;50.090;14.420;2023-02-13T05:08:54;101520.19;;;9.30;59.38
67740;BME280;54536;50.090;14.420;2023-02-13T05:11:20;101526.22;;;9.32;59.48
67740;BME280;54536;50.090;14.420;2023-02-13T05:13:46;101522.13;;;9.44;58.61
67740;BME280;54536;50.090;14.420;2023-02-13T05:16:12;101523.66;;;9.31;59.17
67740;BME280;54536;50.090;14.420;2023-02-13T05:18:38;101521.50;;;9.22;59.14
67740;BME280;54536;50.090;14.420;2023-02-13T05:21:04;101527.13;;;9.31;59.17
67740;BME280;54536;50.090;14.420;2023-02-13T05:23:51;101527.81;;;9.18;59.41
67740;BME280;54536;50.090;14.420;2023-02-13T05:26:18;101522.09;;;9.09;59.66
67740;BME280;54536;50.090;14.420;2023-02-13T05:28:44;101522.56;;;9.18;59.57
67740;BME280;54536;50.090;14.420;2023-02-13T05:31:54;101524.59;;;9.12;59.47
67740;BME280;54536;50.090;14.420;2023-02-13T05:34:24;101529.50;;;9.19;59.80
67740;BME280;54536;50.090;14.420;2023-02-13T05:36:51;101529.91;;;9.28;59.53
67740;BME280;54536;50.090;14.420;2023-02-13T05:39:17;101528.22;;;9.27;59.36
67740;BME280;54536;50.090;14.420;2023-02-13T05:41:47;101533.41;;;9.29;58.73
67740;BME280;54536;50.090;14.420;2023-02-13T05:44:15;101533.00;;;9.19;58.94
67740;BME280;54536;50.090;14.420;2023-02-13T05:46:42;101528.59;;;9.20;58.83
67740;BME280;54536;50.090;14.420;2023-02-13T05:49:11;101519.78;;;9.21;59.33
67740;BME280;54536;50.090;14.420;2023-02-13T05:51:37;101519.13;;;8.98;59.55
67740;BME280;54536;50.090;14.420;2023-02-13T05:54:04;101523.41;;;9.01;60.21
67740;BME280;54536;50.090;14.420;2023-02-13T05:56:29;101532.34;;;8.97;60.21
67740;BME280;54536;50.090;14.420;2023-02-13T05:58:56;101530.47;;;8.99;59.99
67740;BME280;54536;50.090;14.420;2023-02-13T06:01:23;101530.53;;;9.16;59.75
67740;BME280;54536;50.090;14.420;2023-02-13T06:03:50;101532.09;;;9.01;59.75
67740;BME280;54536;50.090;14.420;2023-02-13T06:06:16;101525.78;;;9.05;59.86
67740;BME280;54536;50.090;14.420;2023-02-13T06:08:43;101526.28;;;9.13;59.28
67740;BME280;54536;50.090;14.420;2023-02-13T06:11:10;101529.47;;;9.01;59.84
67740;BME280;54536;50.090;14.420;2023-02-13T06:13:36;101537.84;;;9.09;59.84
67740;BME280;54536;50.090;14.420;2023-02-13T06:16:07;101535.00;;;9.14;59.45
67740;BME280;54536;50.090;14.420;2023-02-13T06:18:34;101532.50;;;9.11;59.52
67740;BME280;54536;50.090;14.420;2023-02-13T06:21:01;101532.94;;;9.02;59.57
67740;BME280;54536;50.090;14.420;2023-02-13T06:23:29;101536.91;;;9.10;59.71
67740;BME280;54536;50.090;14.420;2023-02-13T06:25:54;101538.56;;;9.13;59.56
67740;BME280;54536;50.090;14.420;2023-02-13T06:28:21;101543.81;;;9.13;59.47
67740;BME280;54536;50.090;14.420;2023-02-13T06:30:47;101535.84;;;9.14;58.85
67740;BME280;54536;50.090;14.420;2023-02-13T06:33:14;101540.38;;;9.11;58.74
67740;BME280;54536;50.090;14.420;2023-02-13T06:35:40;101531.13;;;9.04;59.22
67740;BME280;54536;50.090;14.420;2023-02-13T06:38:06;101544.19;;;8.86;60.42
67740;BME280;54536;50.090;14.420;2023-02-13T06:40:32;101548.50;;;8.87;60.27
67740;BME280;54536;50.090;14.420;2023-02-13T06:42:58;101551.19;;;9.05;59.85
67740;BME280;54536;50.090;14.420;2023-02-13T06:45:24;101547.56;;;9.07;59.17
67740;BME280;54536;50.090;14.420;2023-02-13T06:47:50;101548.13;;;9.14;58.83
67740;BME280;54536;50.090;14.420;2023-02-13T06:50:17;101550.09;;;9.09;59.02
67740;BME280;54536;50.090;14.420;2023-02-13T06:52:48;101546.22;;;8.99;59.54
67740;BME280;54536;50.090;14.420;2023-02-13T06:55:15;101556.50;;;9.03;59.46
67740;BME280;54536;50.090;14.420;2023-02-13T06:57:43;101549.50;;;8.85;59.71
67740;BME280;54536;50.090;14.420;2023-02-13T07:00:10;101551.56;;;8.97;59.91
67740;BME280;54536;50.090;14.420;2023-02-13T07:02:44;101539.78;;;8.87;59.59
67740;BME280;54536;50.090;14.420;2023-02-13T07:05:11;101546.91;;;9.02;59.21
67740;BME280;54536;50.090;14.420;2023-02-13T07:07:40;101545.09;;;9.04;59.17
67740;BME280;54536;50.090;14.420;2023-02-13T07:10:09;101553.47;;;9.12;59.40
67740;BME280;54536;50.090;14.420;2023-02-13T07:12:37;101545.44;;;9.16;59.06
67740;BME280;54536;50.090;14.420;2023-02-13T07:15:04;101546.00;;;9.22;59.33
67740;BME280;54536;50.090;14.420;2023-02-13T07:17:30;101552.22;;;9.20;59.22
67740;BME280;54536;50.090;14.420;2023-02-13T07:19:57;101553.47;;;9.12;59.04
67740;BME280;54536;50.090;14.420;2023-02-13T07:22:23;101557.22;;;9.07;58.95
67740;BME280;54536;50.090;14.420;2023-02-13T07:24:49;101562.38;;;9.08;59.06
67740;BME280;54536;50.090;14.420;2023-02-13T07:27:15;101565.13;;;9.24;58.59
67740;BME280;54536;50.090;14.420;2023-02-13T07:29:41;101565.28;;;9.21;58.65
67740;BME280;54536;50.090;14.420;2023-02-13T07:32:07;101573.13;;;9.21;59.24
67740;BME280;54536;50.090;14.420;2023-02-13T07:34:33;101566.34;;;9.17;59.36
67740;BME280;54536;50.090;14.420;2023-02-13T07:37:00;101578.63;;;9.17;58.77
67740;BME280;54536;50.090;14.420;2023-02-13T07:39:25;101565.75;;;9.29;58.43
67740;BME280;54536;50.090;14.420;2023-02-13T07:41:52;101573.09;;;9.23;59.23
67740;BME280;54536;50.090;14.420;2023-02-13T07:44:18;101569.34;;;9.46;58.24
67740;BME280;54536;50.090;14.420;2023-02-13T07:46:44;101568.97;;;9.17;58.77
67740;BME280;54536;50.090;14.420;2023-02-13T07:49:10;101568.84;;;9.37;58.27
67740;BME280;54536;50.090;14.420;2023-02-13T07:51:36;101566.06;;;9.41;58.38
67740;BME280;54536;50.090;14.420;2023-02-13T07:54:02;101564.13;;;9.27;58.79
67740;BME280;54536;50.090;14.420;2023-02-13T07:56:29;101570.97;;;9.48;58.40
67740;BME280;54536;50.090;14.420;2023-02-13T07:58:55;101567.00;;;9.40;58.23
67740;BME280;54536;50.090;14.420;2023-02-13T08:01:21;101562.50;;;9.42;58.11
67740;BME280;54536;50.090;14.420;2023-02-13T08:03:49;101565.13;;;9.42;57.90
67740;BME280;54536;50.090;14.420;2023-02-13T08:06:17;101569.75;;;9.19;59.23
67740;BME280;54536;50.090;14.420;2023-02-13T08:08:43;101565.38;;;9.37;58.29
67740;BME280;54536;50.090;14.420;2023-02-13T08:11:27;101562.28;;;9.29;58.41
67740;BME280;54536;50.090;14.420;2023-02-13T08:14:15;101564.66;;;9.16;58.85
67740;BME280;54536;50.090;14.420;2023-02-13T08:16:41;101557.75;;;9.32;58.60
67740;BME280;54536;50.090;14.420;2023-02-13T08:19:07;101563.91;;;9.31;58.67
67740;BME280;54536;50.090;14.420;2023-02-13T08:21:34;101557.50;;;9.37;58.56
67740;BME280;54536;50.090;14.420;2023-02-13T08:24:03;101557.75;;;9.32;58.90
67740;BME280;54536;50.090;14.420;2023-02-13T08:26:30;101556.28;;;9.44;59.55
67740;BME280;54536;50.090;14.420;2023-02-13T08:28:57;101558.44;;;9.36;58.86
67740;BME280;54536;50.090;14.420;2023-02-13T08:31:24;101554.44;;;9.46;58.60
67740;BME280;54536;50.090;14.420;2023-02-13T08:33:50;101566.72;;;9.46;57.96
67740;BME280;54536;50.090;14.420;2023-02-13T08:36:16;101564.69;;;9.51;58.85
67740;BME280;54536;50.090;14.420;2023-02-13T08:38:47;101553.44;;;9.66;57.56
67740;BME280;54536;50.090;14.420;2023-02-13T08:41:14;101559.19;;;9.38;57.66
67740;BME280;54536;50.090;14.420;2023-02-13T08:43:40;101558.50;;;9.34;58.34
67740;BME280;54536;50.090;14.420;2023-02-13T08:46:06;101556.59;;;9.55;57.58
67740;BME280;54536;50.090;14.420;2023-02-13T08:48:33;101555.22;;;9.66;57.27
67740;BME280;54536;50.090;14.420;2023-02-13T08:51:05;101560.56;;;9.81;57.46
67740;BME280;54536;50.090;14.420;2023-02-13T08:53:32;101568.19;;;9.69;57.51
67740;BME280;54536;50.090;14.420;2023-02-13T08:55:59;101568.41;;;9.64;57.62
67740;BME280;54536;50.090;14.420;2023-02-13T08:58:25;101570.13;;;9.82;56.85
67740;BME280;54536;50.090;14.420;2023-02-13T09:00:51;101568.34;;;9.83;56.84
67740;BME280;54536;50.090;14.420;2023-02-13T09:03:17;101569.81;;;9.89;56.89
67740;BME280;54536;50.090;14.420;2023-02-13T09:05:44;101578.16;;;9.79;57.13
67740;BME280;54536;50.090;14.420;2023-02-13T09:08:10;101573.91;;;9.94;56.74
67740;BME280;54536;50.090;14.420;2023-02-13T09:10:40;101572.97;;;9.95;56.08
67740;BME280;54536;50.090;14.420;2023-02-13T09:13:06;101568.50;;;9.97;56.71
67740;BME280;54536;50.090;14.420;2023-02-13T09:15:32;101573.03;;;10.11;56.05
67740;BME280;54536;50.090;14.420;2023-02-13T09:17:58;101570.16;;;10.33;55.05
67740;BME280;54536;50.090;14.420;2023-02-13T09:20:25;101573.16;;;10.25;55.79
67740;BME280;54536;50.090;14.420;2023-02-13T09:22:51;101567.00;;;10.26;55.80
67740;BME280;54536;50.090;14.420;2023-02-13T09:25:17;101567.72;;;10.30;55.74
67740;BME280;54536;50.090;14.420;2023-02-13T09:27:44;101572.38;;;10.23;55.70
67740;BME280;54536;50.090;14.420;2023-02-13T09:30:11;101573.72;;;10.32;55.60
67740;BME280;54536;50.090;14.420;2023-02-13T09:32:43;101576.78;;;10.23;55.55
67740;BME280;54536;50.090;14.420;2023-02-13T09:35:09;101567.34;;;10.36;55.55
67740;BME280;54536;50.090;14.420;2023-02-13T09:37:35;101563.66;;;10.40;55.74
67740;BME280;54536;50.090;14.420;2023-02-13T09:40:01;101563.25;;;10.48;55.09
67740;BME280;54536;50.090;14.420;2023-02-13T09:42:32;101571.16;;;10.64;54.39
67740;BME280;54536;50.090;14.420;2023-02-13T09:45:05;101566.84;;;10.63;54.58
67740;BME280;54536;50.090;14.420;2023-02-13T09:47:40;101572.19;;;10.77;54.30
67740;BME280;54536;50.090;14.420;2023-02-13T09:50:23;101577.69;;;10.57;54.46
67740;BME280;54536;50.090;14.420;2023-02-13T09:52:53;101571.00;;;10.67;54.37
67740;BME280;54536;50.090;14.420;2023-02-13T09:55:45;101579.13;;;10.62;54.57
67740;BME280;54536;50.090;14.420;2023-02-13T10:01:02;101582.38;;;10.67;54.84
67740;BME280;54536;50.090;14.420;2023-02-13T10:03:38;101581.06;;;10.59;54.74
67740;BME280;54536;50.090;14.420;2023-02-13T10:06:20;101583.88;;;10.71;54.16
67740;BME280;54536;50.090;14.420;2023-02-13T10:09:00;101576.31;;;10.65;54.34
67740;BME280;54536;50.090;14.420;2023-02-13T10:11:41;101573.03;;;10.77;54.54
67740;BME280;54536;50.090;14.420;2023-02-13T10:16:58;101587.47;;;10.86;54.23
67740;BME280;54536;50.090;14.420;2023-02-13T10:19:36;101586.81;;;10.83;54.35
67740;BME280;54536;50.090;14.420;2023-02-13T10:22:22;101580.94;;;10.93;53.74
67740;BME280;54536;50.090;14.420;2023-02-13T10:27:39;101583.75;;;10.90;53.70
67740;BME280;54536;50.090;14.420;2023-02-13T10:30:20;101583.13;;;10.85;53.57
67740;BME280;54536;50.090;14.420;2023-02-13T10:32:58;101580.09;;;10.93;53.95
67740;BME280;54536;50.090;14.420;2023-02-13T10:35:49;101575.59;;;10.95;53.23
67740;BME280;54536;50.090;14.420;2023-02-13T10:38:20;101577.81;;;11.02;53.22
67740;BME280;54536;50.090;14.420;2023-02-13T10:41:21;101568.56;;;10.95;53.18
67740;BME280;54536;50.090;14.420;2023-02-13T10:46:34;101560.22;;;11.19;53.25
67740;BME280;54536;50.090;14.420;2023-02-13T10:52:18;101561.50;;;11.12;52.76
67740;BME280;54536;50.090;14.420;2023-02-13T10:58:08;101563.03;;;11.16;53.13
67740;BME280;54536;50.090;14.420;2023-02-13T11:03:28;101558.47;;;11.34;52.07
67740;BME280;54536;50.090;14.420;2023-02-13T11:05:58;101552.97;;;11.38;52.59
67740;BME280;54536;50.090;14.420;2023-02-13T11:08:39;101549.78;;;11.47;51.93
67740;BME280;54536;50.090;14.420;2023-02-13T11:14:20;101548.00;;;11.48;52.15
67740;BME280;54536;50.090;14.420;2023-02-13T11:17:11;101537.09;;;11.54;51.88
67740;BME280;54536;50.090;14.420;2023-02-13T11:19:54;101539.81;;;11.53;51.11
67740;BME280;54536;50.090;14.420;2023-02-13T11:22:34;101540.25;;;11.61;51.59
67740;BME280;54536;50.090;14.420;2023-02-13T11:27:36;101537.72;;;11.73;50.50
67740;BME280;54536;50.090;14.420;2023-02-13T11:33:00;101531.00;;;11.98;49.96
67740;BME280;54536;50.090;14.420;2023-02-13T11:35:30;101531.31;;;11.93;50.47
67740;BME280;54536;50.090;14.420;2023-02-13T11:38:26;101525.81;;;11.97;50.12
67740;BME280;54536;50.090;14.420;2023-02-13T11:41:05;101522.38;;;12.10;49.41
67740;BME280;54536;50.090;14.420;2023-02-13T11:43:42;101521.69;;;12.21;49.10
67740;BME280;54536;50.090;14.420;2023-02-13T11:46:22;101520.94;;;12.33;48.38
67740;BME280;54536;50.090;14.420;2023-02-13T11:49:05;101518.38;;;12.32;47.96
67740;BME280;54536;50.090;14.420;2023-02-13T11:51:58;101517.84;;;12.27;47.54
67740;BME280;54536;50.090;14.420;2023-02-13T11:57:00;101517.59;;;12.58;45.47
67740;BME280;54536;50.090;14.420;2023-02-13T11:59:32;101511.41;;;12.59;45.40
67740;BME280;54536;50.090;14.420;2023-02-13T12:04:51;101514.31;;;12.69;44.70
67740;BME280;54536;50.090;14.420;2023-02-13T12:09:48;101502.03;;;12.68;44.71
67740;BME280;54536;50.090;14.420;2023-02-13T12:12:41;101497.25;;;12.60;43.73
67740;BME280;54536;50.090;14.420;2023-02-13T12:15:19;101492.63;;;12.64;43.92
67740;BME280;54536;50.090;14.420;2023-02-13T12:20:35;101494.03;;;12.70;44.64
67740;BME280;54536;50.090;14.420;2023-02-13T12:23:22;101484.63;;;12.65;44.64
67740;BME280;54536;50.090;14.420;2023-02-13T12:26:09;101488.56;;;12.73;44.72
67740;BME280;54536;50.090;14.420;2023-02-13T12:29:13;101482.19;;;12.62;45.34
67740;BME280;54536;50.090;14.420;2023-02-13T12:32:00;101474.59;;;12.71;45.04
67740;BME280;54536;50.090;14.420;2023-02-13T12:38:06;101468.41;;;12.57;44.58
67740;BME280;54536;50.090;14.420;2023-02-13T12:43:47;101454.72;;;12.65;44.55
67740;BME280;54536;50.090;14.420;2023-02-13T12:55:32;101447.66;;;12.93;42.10
67740;BME280;54536;50.090;14.420;2023-02-13T12:58:17;101439.69;;;12.80;41.72
67740;BME280;54536;50.090;14.420;2023-02-13T13:01:21;101443.72;;;12.85;41.91
67740;BME280;54536;50.090;14.420;2023-02-13T13:09:48;101436.69;;;12.99;41.59
67740;BME280;54536;50.090;14.420;2023-02-13T13:12:46;101438.91;;;12.92;42.40
67740;BME280;54536;50.090;14.420;2023-02-13T13:18:11;101439.53;;;12.96;41.87
67740;BME280;54536;50.090;14.420;2023-02-13T13:23:35;101436.91;;;12.96;42.61
67740;BME280;54536;50.090;14.420;2023-02-13T13:26:23;101436.78;;;12.97;42.31
67740;BME280;54536;50.090;14.420;2023-02-13T13:28:55;101438.63;;;13.09;42.25
67740;BME280;54536;50.090;14.420;2023-02-13T13:31:25;101432.56;;;13.07;41.85
67740;BME280;54536;50.090;14.420;2023-02-13T13:33:59;101435.19;;;12.95;42.32
67740;BME280;54536;50.090;14.420;2023-02-13T13:36:34;101423.94;;;13.05;41.99
67740;BME280;54536;50.090;14.420;2023-02-13T13:39:15;101435.84;;;12.98;42.39
67740;BME280;54536;50.090;14.420;2023-02-13T13:45:07;101422.84;;;12.95;41.84
67740;BME280;54536;50.090;14.420;2023-02-13T13:50:56;101418.22;;;12.99;41.90
67740;BME280;54536;50.090;14.420;2023-02-13T13:53:22;101426.81;;;12.88;42.33
67740;BME280;54536;50.090;14.420;2023-02-13T13:58:50;101424.94;;;12.90;41.81
67740;BME280;54536;50.090;14.420;2023-02-13T14:03:59;101429.78;;;12.83;41.83
67740;BME280;54536;50.090;14.420;2023-02-13T14:09:40;101432.81;;;12.77;42.27
67740;BME280;54536;50.090;14.420;2023-02-13T14:12:49;101432.84;;;12.90;41.76
67740;BME280;54536;50.090;14.420;2023-02-13T14:29:15;101433.41;;;12.95;41.15
67740;BME280;54536;50.090;14.420;2023-02-13T14:32:06;101444.66;;;12.84;41.44
67740;BME280;54536;50.090;14.420;2023-02-13T14:34:41;101439.19;;;12.87;41.45
67740;BME280;54536;50.090;14.420;2023-02-13T14:37:20;101443.38;;;12.77;41.78
67740;BME280;54536;50.090;14.420;2023-02-13T14:42:38;101437.75;;;12.69;41.88
67740;BME280;54536;50.090;14.420;2023-02-13T14:45:14;101431.22;;;12.75;42.09
67740;BME280;54536;50.090;14.420;2023-02-13T14:47:46;101432.75;;;12.64;42.02
67740;BME280;54536;50.090;14.420;2023-02-13T14:52:52;101432.94;;;12.61;42.22
67740;BME280;54536;50.090;14.420;2023-02-13T14:58:16;101425.16;;;12.46;42.44
67740;BME280;54536;50.090;14.420;2023-02-13T15:00:59;101425.53;;;12.54;41.91
67740;BME280;54536;50.090;14.420;2023-02-13T15:05:59;101412.66;;;12.49;42.72
67740;BME280;54536;50.090;14.420;2023-02-13T15:08:41;101417.38;;;12.44;42.66
67740;BME280;54536;50.090;14.420;2023-02-13T15:11:11;101411.97;;;12.46;42.19
67740;BME280;54536;50.090;14.420;2023-02-13T15:14:35;101406.81;;;12.44;42.73
67740;BME280;54536;50.090;14.420;2023-02-13T15:17:02;101409.75;;;12.39;43.16
67740;BME280;54536;50.090;14.420;2023-02-13T15:19:34;101405.22;;;12.41;44.37
67740;BME280;54536;50.090;14.420;2023-02-13T15:22:04;101415.69;;;12.29;42.90
67740;BME280;54536;50.090;14.420;2023-02-13T15:24:42;101409.09;;;12.36;43.51
67740;BME280;54536;50.090;14.420;2023-02-13T15:27:19;101413.63;;;12.34;43.29
67740;BME280;54536;50.090;14.420;2023-02-13T15:32:37;101410.44;;;12.29;43.37
67740;BME280;54536;50.090;14.420;2023-02-13T15:37:47;101411.69;;;12.23;43.58
67740;BME280;54536;50.090;14.420;2023-02-13T15:40:37;101411.03;;;12.05;43.22
67740;BME280;54536;50.090;14.420;2023-02-13T15:43:21;101406.78;;;12.03;43.66
67740;BME280;54536;50.090;14.420;2023-02-13T15:45:49;101404.72;;;12.08;43.48